sensor_id;sensor_type;location;lat;lon;timestamp;P1;durP1;ratioP1;P2;durP2;ratioP2
48777;SDS011;34578;0.000;0.000;2023-04-15T00:02:15;4.73;;;0.93;;
48777;SDS011;34578;0.000;0.000;2023-04-15T00:07:17;3.00;;;0.90;;
48777;SDS011;34578;0.000;0.000;2023-04-15T00:12:17;2.87;;;1.00;;
48777;SDS011;34578;0.000;0.000;2023-04-15T00:17:18;2.83;;;0.97;;
48777;SDS011;34578;0.000;0.000;2023-04-15T00:22:18;1.90;;;1.07;;
48777;SDS011;34578;0.000;0.000;2023-04-15T00:27:18;2.57;;;0.57;;
48777;SDS011;34578;0.000;0.000;2023-04-15T00:32:19;2.13;;;0.85;;
48777;SDS011;34578;0.000;0.000;2023-04-15T00:37:19;1.23;;;0.47;;
48777;SDS011;34578;0.000;0.000;2023-04-15T00:42:20;3.33;;;1.00;;
48777;SDS011;34578;0.000;0.000;2023-04-15T00:47:21;1.27;;;0.65;;
48777;SDS011;34578;0.000;0.000;2023-04-15T00:52:21;1.98;;;1.15;;
48777;SDS011;34578;0.000;0.000;2023-04-15T00:57:22;1.77;;;0.87;;
48777;SDS011;34578;0.000;0.000;2023-04-15T01:02:22;1.77;;;0.77;;
48777;SDS011;34578;0.000;0.000;2023-04-15T01:07:23;2.92;;;0.77;;
48777;SDS011;34578;0.000;0.000;2023-04-15T01:12:25;1.95;;;0.80;;
48777;SDS011;34578;0.000;0.000;2023-04-15T01:17:26;2.70;;;0.77;;
48777;SDS011;34578;0.000;0.000;2023-04-15T01:22:27;0.88;;;0.55;;
48777;SDS011;34578;0.000;0.000;2023-04-15T01:27:27;1.80;;;0.70;;
48777;SDS011;34578;0.000;0.000;2023-04-15T01:32:28;1.33;;;0.82;;
48777;SDS011;34578;0.000;0.000;2023-04-15T01:37:30;1.83;;;0.70;;
48777;SDS011;34578;0.000;0.000;2023-04-15T01:42:31;1.30;;;0.60;;
48777;SDS011;34578;0.000;0.000;2023-04-15T01:47:31;4.10;;;0.88;;
48777;SDS011;34578;0.000;0.000;2023-04-15T01:52:32;2.33;;;1.20;;
48777;SDS011;34578;0.000;0.000;2023-04-15T01:57:33;1.17;;;0.50;;
48777;SDS011;34578;0.000;0.000;2023-04-15T02:02:34;1.27;;;0.65;;
48777;SDS011;34578;0.000;0.000;2023-04-15T02:07:34;0.93;;;0.40;;
48777;SDS011;34578;0.000;0.000;2023-04-15T02:12:35;2.83;;;0.77;;
48777;SDS011;34578;0.000;0.000;2023-04-15T02:17:36;0.73;;;0.40;;
48777;SDS011;34578;0.000;0.000;2023-04-15T02:22:36;1.30;;;0.55;;
48777;SDS011;34578;0.000;0.000;2023-04-15T02:27:37;1.83;;;0.40;;
48777;SDS011;34578;0.000;0.000;2023-04-15T02:32:37;1.07;;;0.40;;
48777;SDS011;34578;0.000;0.000;2023-04-15T02:37:38;1.00;;;0.75;;
48777;SDS011;34578;0.000;0.000;2023-04-15T02:42:45;3.70;;;0.80;;
48777;SDS011;34578;0.000;0.000;2023-04-15T02:47:48;1.27;;;0.60;;
48777;SDS011;34578;0.000;0.000;2023-04-15T02:52:49;1.13;;;0.55;;
48777;SDS011;34578;0.000;0.000;2023-04-15T02:57:51;1.15;;;0.47;;
48777;SDS011;34578;0.000;0.000;2023-04-15T03:02:56;1.00;;;0.55;;
48777;SDS011;34578;0.000;0.000;2023-04-15T03:08:03;1.25;;;0.70;;
48777;SDS011;34578;0.000;0.000;2023-04-15T03:13:04;1.17;;;0.60;;
48777;SDS011;34578;0.000;0.000;2023-04-15T03:18:04;2.00;;;0.55;;
48777;SDS011;34578;0.000;0.000;2023-04-15T03:23:07;1.08;;;0.50;;
48777;SDS011;34578;0.000;0.000;2023-04-15T03:28:07;1.50;;;0.63;;
48777;SDS011;34578;0.000;0.000;2023-04-15T03:33:08;1.10;;;0.70;;
48777;SDS011;34578;0.000;0.000;2023-04-15T03:38:09;2.03;;;0.60;;
48777;SDS011;34578;0.000;0.000;2023-04-15T03:43:09;1.83;;;0.77;;
48777;SDS011;34578;0.000;0.000;2023-04-15T03:48:10;1.30;;;0.52;;
48777;SDS011;34578;0.000;0.000;2023-04-15T03:53:10;1.40;;;0.70;;
48777;SDS011;34578;0.000;0.000;2023-04-15T03:58:11;1.13;;;0.60;;
48777;SDS011;34578;0.000;0.000;2023-04-15T04:03:11;0.90;;;0.43;;
48777;SDS011;34578;0.000;0.000;2023-04-15T04:08:12;1.15;;;0.50;;
48777;SDS011;34578;0.000;0.000;2023-04-15T04:13:12;1.00;;;0.60;;
48777;SDS011;34578;0.000;0.000;2023-04-15T04:18:13;0.80;;;0.50;;
48777;SDS011;34578;0.000;0.000;2023-04-15T04:23:13;1.47;;;0.40;;
48777;SDS011;34578;0.000;0.000;2023-04-15T04:28:13;0.90;;;0.50;;
48777;SDS011;34578;0.000;0.000;2023-04-15T04:33:14;2.43;;;0.43;;
48777;SDS011;34578;0.000;0.000;2023-04-15T04:38:14;1.52;;;0.40;;
48777;SDS011;34578;0.000;0.000;2023-04-15T04:43:17;1.70;;;0.43;;
48777;SDS011;34578;0.000;0.000;2023-04-15T04:48:18;0.90;;;0.50;;
48777;SDS011;34578;0.000;0.000;2023-04-15T04:53:18;3.22;;;0.80;;
48777;SDS011;34578;0.000;0.000;2023-04-15T04:58:19;1.98;;;0.70;;
48777;SDS011;34578;0.000;0.000;2023-04-15T05:03:20;2.78;;;1.10;;
48777;SDS011;34578;0.000;0.000;2023-04-15T05:08:20;1.63;;;0.50;;
48777;SDS011;34578;0.000;0.000;2023-04-15T05:13:21;2.20;;;0.50;;
48777;SDS011;34578;0.000;0.000;2023-04-15T05:18:21;2.20;;;0.70;;
48777;SDS011;34578;0.000;0.000;2023-04-15T05:23:21;4.07;;;0.60;;
48777;SDS011;34578;0.000;0.000;2023-04-15T05:28:22;1.03;;;0.77;;
48777;SDS011;34578;0.000;0.000;2023-04-15T05:33:22;1.70;;;0.70;;
48777;SDS011;34578;0.000;0.000;2023-04-15T05:38:23;1.45;;;0.65;;
48777;SDS011;34578;0.000;0.000;2023-04-15T05:43:23;2.83;;;0.70;;
48777;SDS011;34578;0.000;0.000;2023-04-15T05:48:23;2.07;;;0.60;;
48777;SDS011;34578;0.000;0.000;2023-04-15T05:53:24;3.03;;;0.53;;
48777;SDS011;34578;0.000;0.000;2023-04-15T05:58:24;3.53;;;1.70;;
48777;SDS011;34578;0.000;0.000;2023-04-15T06:03:25;1.15;;;0.50;;
48777;SDS011;34578;0.000;0.000;2023-04-15T06:08:25;1.00;;;0.70;;
48777;SDS011;34578;0.000;0.000;2023-04-15T06:13:26;1.92;;;0.70;;
48777;SDS011;34578;0.000;0.000;2023-04-15T06:18:27;1.10;;;0.40;;
48777;SDS011;34578;0.000;0.000;2023-04-15T06:23:27;2.30;;;0.93;;
48777;SDS011;34578;0.000;0.000;2023-04-15T06:28:28;1.98;;;0.50;;
48777;SDS011;34578;0.000;0.000;2023-04-15T06:33:28;3.50;;;0.40;;
48777;SDS011;34578;0.000;0.000;2023-04-15T06:38:28;1.98;;;0.70;;
48777;SDS011;34578;0.000;0.000;2023-04-15T06:43:29;2.00;;;0.55;;
48777;SDS011;34578;0.000;0.000;2023-04-15T06:48:29;0.97;;;0.50;;
48777;SDS011;34578;0.000;0.000;2023-04-15T06:53:30;3.50;;;0.70;;
48777;SDS011;34578;0.000;0.000;2023-04-15T06:58:30;2.13;;;0.70;;
48777;SDS011;34578;0.000;0.000;2023-04-15T07:03:30;0.73;;;0.40;;
48777;SDS011;34578;0.000;0.000;2023-04-15T07:08:31;0.73;;;0.50;;
48777;SDS011;34578;0.000;0.000;2023-04-15T07:13:32;1.20;;;1.00;;
48777;SDS011;34578;0.000;0.000;2023-04-15T07:18:33;1.88;;;1.20;;
48777;SDS011;34578;0.000;0.000;2023-04-15T07:23:33;2.05;;;1.77;;
48777;SDS011;34578;0.000;0.000;2023-04-15T07:28:34;3.50;;;1.97;;
48777;SDS011;34578;0.000;0.000;2023-04-15T07:33:34;2.33;;;2.13;;
48777;SDS011;34578;0.000;0.000;2023-04-15T07:38:34;2.87;;;1.80;;
48777;SDS011;34578;0.000;0.000;2023-04-15T07:43:35;2.23;;;1.67;;
48777;SDS011;34578;0.000;0.000;2023-04-15T07:48:35;3.03;;;2.27;;
48777;SDS011;34578;0.000;0.000;2023-04-15T07:53:35;2.97;;;2.03;;
48777;SDS011;34578;0.000;0.000;2023-04-15T07:58:36;3.03;;;1.90;;
48777;SDS011;34578;0.000;0.000;2023-04-15T08:03:36;2.33;;;1.80;;
48777;SDS011;34578;0.000;0.000;2023-04-15T08:08:37;2.80;;;1.50;;
48777;SDS011;34578;0.000;0.000;2023-04-15T08:13:37;3.33;;;1.30;;
48777;SDS011;34578;0.000;0.000;2023-04-15T08:18:37;3.33;;;1.60;;
48777;SDS011;34578;0.000;0.000;2023-04-15T08:23:38;3.50;;;1.53;;
48777;SDS011;34578;0.000;0.000;2023-04-15T08:28:39;4.60;;;1.85;;
48777;SDS011;34578;0.000;0.000;2023-04-15T08:33:41;3.88;;;2.08;;
48777;SDS011;34578;0.000;0.000;2023-04-15T08:38:43;4.00;;;2.00;;
48777;SDS011;34578;0.000;0.000;2023-04-15T08:43:48;3.25;;;1.20;;
48777;SDS011;34578;0.000;0.000;2023-04-15T08:53:55;5.18;;;1.67;;
48777;SDS011;34578;0.000;0.000;2023-04-15T08:58:56;2.90;;;1.73;;
48777;SDS011;34578;0.000;0.000;2023-04-15T09:03:57;4.10;;;1.55;;
48777;SDS011;34578;0.000;0.000;2023-04-15T09:08:58;4.30;;;1.88;;
48777;SDS011;34578;0.000;0.000;2023-04-15T09:13:59;2.50;;;1.48;;
48777;SDS011;34578;0.000;0.000;2023-04-15T09:18:59;4.60;;;1.50;;
48777;SDS011;34578;0.000;0.000;2023-04-15T09:24:02;1.90;;;1.20;;
48777;SDS011;34578;0.000;0.000;2023-04-15T09:29:06;3.60;;;1.63;;
48777;SDS011;34578;0.000;0.000;2023-04-15T09:34:08;5.45;;;1.42;;
48777;SDS011;34578;0.000;0.000;2023-04-15T09:39:09;10.90;;;1.52;;
48777;SDS011;34578;0.000;0.000;2023-04-15T09:44:25;16.60;;;4.40;;
48777;SDS011;34578;0.000;0.000;2023-04-15T09:49:25;10.07;;;2.22;;
48777;SDS011;34578;0.000;0.000;2023-04-15T09:54:33;10.43;;;1.80;;
48777;SDS011;34578;0.000;0.000;2023-04-15T09:59:37;4.97;;;1.42;;
48777;SDS011;34578;0.000;0.000;2023-04-15T10:04:39;5.97;;;1.70;;
48777;SDS011;34578;0.000;0.000;2023-04-15T10:09:41;8.52;;;1.75;;
48777;SDS011;34578;0.000;0.000;2023-04-15T10:14:47;4.05;;;1.83;;
48777;SDS011;34578;0.000;0.000;2023-04-15T10:19:52;11.23;;;1.77;;
48777;SDS011;34578;0.000;0.000;2023-04-15T10:24:54;13.15;;;2.05;;
48777;SDS011;34578;0.000;0.000;2023-04-15T10:29:55;12.35;;;2.08;;
48777;SDS011;34578;0.000;0.000;2023-04-15T10:34:56;8.75;;;1.60;;
48777;SDS011;34578;0.000;0.000;2023-04-15T10:39:57;8.50;;;2.00;;
48777;SDS011;34578;0.000;0.000;2023-04-15T10:44:58;7.05;;;1.98;;
48777;SDS011;34578;0.000;0.000;2023-04-15T10:50:00;6.65;;;2.05;;
48777;SDS011;34578;0.000;0.000;2023-04-15T10:55:02;4.90;;;1.92;;
48777;SDS011;34578;0.000;0.000;2023-04-15T11:00:14;5.30;;;1.88;;
48777;SDS011;34578;0.000;0.000;2023-04-15T11:05:16;5.75;;;1.95;;
48777;SDS011;34578;0.000;0.000;2023-04-15T11:20:32;2.95;;;1.40;;
48777;SDS011;34578;0.000;0.000;2023-04-15T11:25:33;4.40;;;1.80;;
48777;SDS011;34578;0.000;0.000;2023-04-15T11:30:35;2.22;;;1.92;;
48777;SDS011;34578;0.000;0.000;2023-04-15T11:35:36;5.10;;;1.42;;
48777;SDS011;34578;0.000;0.000;2023-04-15T11:40:36;3.50;;;1.37;;
48777;SDS011;34578;0.000;0.000;2023-04-15T11:45:59;4.25;;;1.88;;
48777;SDS011;34578;0.000;0.000;2023-04-15T11:51:04;2.08;;;1.52;;
48777;SDS011;34578;0.000;0.000;2023-04-15T11:56:06;2.95;;;1.30;;
48777;SDS011;34578;0.000;0.000;2023-04-15T12:01:09;2.45;;;1.40;;
48777;SDS011;34578;0.000;0.000;2023-04-15T12:06:51;1.75;;;1.40;;
48777;SDS011;34578;0.000;0.000;2023-04-15T12:16:43;3.33;;;1.90;;
48777;SDS011;34578;0.000;0.000;2023-04-15T12:21:46;1.98;;;1.38;;
48777;SDS011;34578;0.000;0.000;2023-04-15T12:31:57;4.25;;;1.33;;
48777;SDS011;34578;0.000;0.000;2023-04-15T12:36:59;3.30;;;1.35;;
48777;SDS011;34578;0.000;0.000;2023-04-15T12:42:02;2.88;;;0.95;;
48777;SDS011;34578;0.000;0.000;2023-04-15T12:47:03;5.50;;;1.70;;
48777;SDS011;34578;0.000;0.000;2023-04-15T12:52:04;4.97;;;1.50;;
48777;SDS011;34578;0.000;0.000;2023-04-15T12:57:04;12.43;;;1.90;;
48777;SDS011;34578;0.000;0.000;2023-04-15T13:02:05;3.70;;;1.50;;
48777;SDS011;34578;0.000;0.000;2023-04-15T13:07:05;5.85;;;1.58;;
48777;SDS011;34578;0.000;0.000;2023-04-15T13:12:05;2.30;;;1.53;;
48777;SDS011;34578;0.000;0.000;2023-04-15T13:17:06;5.88;;;1.40;;
48777;SDS011;34578;0.000;0.000;2023-04-15T13:22:09;3.20;;;1.33;;
48777;SDS011;34578;0.000;0.000;2023-04-15T13:27:10;3.58;;;1.63;;
48777;SDS011;34578;0.000;0.000;2023-04-15T13:32:10;4.07;;;1.83;;
48777;SDS011;34578;0.000;0.000;2023-04-15T13:37:11;4.35;;;2.05;;
48777;SDS011;34578;0.000;0.000;2023-04-15T13:42:11;3.93;;;1.30;;
48777;SDS011;34578;0.000;0.000;2023-04-15T13:47:11;8.30;;;1.57;;
48777;SDS011;34578;0.000;0.000;2023-04-15T13:52:13;6.35;;;1.30;;
48777;SDS011;34578;0.000;0.000;2023-04-15T13:57:14;3.80;;;1.20;;
48777;SDS011;34578;0.000;0.000;2023-04-15T14:02:14;3.97;;;1.15;;
48777;SDS011;34578;0.000;0.000;2023-04-15T14:07:15;8.30;;;1.77;;
48777;SDS011;34578;0.000;0.000;2023-04-15T14:12:15;3.97;;;1.65;;
48777;SDS011;34578;0.000;0.000;2023-04-15T14:17:16;6.80;;;1.40;;
48777;SDS011;34578;0.000;0.000;2023-04-15T14:22:16;12.33;;;3.57;;
48777;SDS011;34578;0.000;0.000;2023-04-15T14:27:18;5.95;;;1.58;;
48777;SDS011;34578;0.000;0.000;2023-04-15T14:32:18;5.78;;;1.30;;
48777;SDS011;34578;0.000;0.000;2023-04-15T14:37:19;5.57;;;1.42;;
48777;SDS011;34578;0.000;0.000;2023-04-15T14:42:19;3.33;;;1.17;;
48777;SDS011;34578;0.000;0.000;2023-04-15T14:47:19;2.55;;;0.85;;
48777;SDS011;34578;0.000;0.000;2023-04-15T14:52:20;2.73;;;1.30;;
48777;SDS011;34578;0.000;0.000;2023-04-15T14:57:20;3.17;;;1.07;;
48777;SDS011;34578;0.000;0.000;2023-04-15T15:02:20;5.80;;;1.57;;
48777;SDS011;34578;0.000;0.000;2023-04-15T15:07:21;6.70;;;1.60;;
48777;SDS011;34578;0.000;0.000;2023-04-15T15:12:22;5.57;;;1.30;;
48777;SDS011;34578;0.000;0.000;2023-04-15T15:17:22;2.80;;;1.00;;
48777;SDS011;34578;0.000;0.000;2023-04-15T15:22:23;7.32;;;1.63;;
48777;SDS011;34578;0.000;0.000;2023-04-15T15:27:25;5.93;;;2.17;;
48777;SDS011;34578;0.000;0.000;2023-04-15T15:32:25;6.75;;;1.80;;
48777;SDS011;34578;0.000;0.000;2023-04-15T15:37:25;5.67;;;1.50;;
48777;SDS011;34578;0.000;0.000;2023-04-15T15:42:26;10.23;;;4.30;;
48777;SDS011;34578;0.000;0.000;2023-04-15T15:47:30;12.95;;;4.43;;
48777;SDS011;34578;0.000;0.000;2023-04-15T15:52:31;8.70;;;3.35;;
48777;SDS011;34578;0.000;0.000;2023-04-15T15:57:31;5.87;;;1.30;;
48777;SDS011;34578;0.000;0.000;2023-04-15T16:02:31;4.97;;;1.77;;
48777;SDS011;34578;0.000;0.000;2023-04-15T16:07:32;4.22;;;1.60;;
48777;SDS011;34578;0.000;0.000;2023-04-15T16:12:33;4.80;;;1.90;;
48777;SDS011;34578;0.000;0.000;2023-04-15T16:17:34;3.10;;;1.77;;
48777;SDS011;34578;0.000;0.000;2023-04-15T16:22:34;7.90;;;2.33;;
48777;SDS011;34578;0.000;0.000;2023-04-15T16:27:35;4.07;;;1.80;;
48777;SDS011;34578;0.000;0.000;2023-04-15T16:32:35;4.07;;;1.30;;
48777;SDS011;34578;0.000;0.000;2023-04-15T16:37:36;3.50;;;1.70;;
48777;SDS011;34578;0.000;0.000;2023-04-15T16:42:36;2.97;;;1.87;;
48777;SDS011;34578;0.000;0.000;2023-04-15T16:47:37;4.32;;;1.33;;
48777;SDS011;34578;0.000;0.000;2023-04-15T16:52:37;5.40;;;2.47;;
48777;SDS011;34578;0.000;0.000;2023-04-15T16:57:37;6.07;;;2.10;;
48777;SDS011;34578;0.000;0.000;2023-04-15T17:02:38;5.93;;;2.70;;
48777;SDS011;34578;0.000;0.000;2023-04-15T17:07:38;5.63;;;2.53;;
48777;SDS011;34578;0.000;0.000;2023-04-15T17:12:38;8.00;;;2.03;;
48777;SDS011;34578;0.000;0.000;2023-04-15T17:17:39;7.05;;;1.92;;
48777;SDS011;34578;0.000;0.000;2023-04-15T17:22:39;7.53;;;1.85;;
48777;SDS011;34578;0.000;0.000;2023-04-15T17:27:40;4.53;;;2.20;;
48777;SDS011;34578;0.000;0.000;2023-04-15T17:32:40;5.60;;;2.00;;
48777;SDS011;34578;0.000;0.000;2023-04-15T17:37:40;3.53;;;1.67;;
48777;SDS011;34578;0.000;0.000;2023-04-15T17:42:41;4.87;;;2.03;;
48777;SDS011;34578;0.000;0.000;2023-04-15T17:47:41;8.00;;;1.55;;
48777;SDS011;34578;0.000;0.000;2023-04-15T17:52:42;4.45;;;1.83;;
48777;SDS011;34578;0.000;0.000;2023-04-15T17:57:43;7.43;;;2.03;;
48777;SDS011;34578;0.000;0.000;2023-04-15T18:02:45;5.07;;;1.90;;
48777;SDS011;34578;0.000;0.000;2023-04-15T18:07:49;3.72;;;2.15;;
48777;SDS011;34578;0.000;0.000;2023-04-15T18:12:50;4.47;;;1.40;;
48777;SDS011;34578;0.000;0.000;2023-04-15T18:17:50;2.20;;;1.23;;
48777;SDS011;34578;0.000;0.000;2023-04-15T18:22:51;2.92;;;1.27;;
48777;SDS011;34578;0.000;0.000;2023-04-15T18:27:53;3.63;;;1.80;;
48777;SDS011;34578;0.000;0.000;2023-04-15T18:32:53;3.63;;;1.27;;
48777;SDS011;34578;0.000;0.000;2023-04-15T18:37:55;4.93;;;1.33;;
48777;SDS011;34578;0.000;0.000;2023-04-15T18:42:56;3.75;;;1.50;;
48777;SDS011;34578;0.000;0.000;2023-04-15T18:47:57;3.33;;;1.93;;
48777;SDS011;34578;0.000;0.000;2023-04-15T18:52:57;3.57;;;1.20;;
48777;SDS011;34578;0.000;0.000;2023-04-15T18:57:58;2.03;;;1.10;;
48777;SDS011;34578;0.000;0.000;2023-04-15T19:02:58;4.27;;;1.60;;
48777;SDS011;34578;0.000;0.000;2023-04-15T19:07:58;1.67;;;1.20;;
48777;SDS011;34578;0.000;0.000;2023-04-15T19:12:59;3.45;;;1.80;;
48777;SDS011;34578;0.000;0.000;2023-04-15T19:18:00;3.35;;;1.40;;
48777;SDS011;34578;0.000;0.000;2023-04-15T19:23:00;3.75;;;2.45;;
48777;SDS011;34578;0.000;0.000;2023-04-15T19:28:01;2.28;;;1.33;;
48777;SDS011;34578;0.000;0.000;2023-04-15T19:33:01;3.13;;;1.37;;
48777;SDS011;34578;0.000;0.000;2023-04-15T19:38:03;4.20;;;1.05;;
48777;SDS011;34578;0.000;0.000;2023-04-15T19:43:04;2.35;;;1.10;;
48777;SDS011;34578;0.000;0.000;2023-04-15T19:48:04;2.50;;;1.20;;
48777;SDS011;34578;0.000;0.000;2023-04-15T19:53:05;1.67;;;1.15;;
48777;SDS011;34578;0.000;0.000;2023-04-15T19:58:05;2.53;;;1.20;;
48777;SDS011;34578;0.000;0.000;2023-04-15T20:03:06;3.30;;;1.02;;
48777;SDS011;34578;0.000;0.000;2023-04-15T20:08:06;2.65;;;1.13;;
48777;SDS011;34578;0.000;0.000;2023-04-15T20:13:07;2.70;;;1.38;;
48777;SDS011;34578;0.000;0.000;2023-04-15T20:18:07;2.97;;;0.90;;
48777;SDS011;34578;0.000;0.000;2023-04-15T20:23:07;3.00;;;1.33;;
48777;SDS011;34578;0.000;0.000;2023-04-15T20:28:08;2.20;;;1.43;;
48777;SDS011;34578;0.000;0.000;2023-04-15T20:33:08;2.45;;;1.55;;
48777;SDS011;34578;0.000;0.000;2023-04-15T20:38:09;1.80;;;1.07;;
48777;SDS011;34578;0.000;0.000;2023-04-15T20:43:09;1.38;;;0.93;;
48777;SDS011;34578;0.000;0.000;2023-04-15T20:48:09;2.53;;;0.97;;
48777;SDS011;34578;0.000;0.000;2023-04-15T20:53:10;2.30;;;1.13;;
48777;SDS011;34578;0.000;0.000;2023-04-15T20:58:10;3.22;;;1.67;;
48777;SDS011;34578;0.000;0.000;2023-04-15T21:03:11;2.33;;;1.20;;
48777;SDS011;34578;0.000;0.000;2023-04-15T21:08:11;3.10;;;1.10;;
48777;SDS011;34578;0.000;0.000;2023-04-15T21:13:12;2.10;;;1.17;;
48777;SDS011;34578;0.000;0.000;2023-04-15T21:18:14;2.13;;;1.23;;
48777;SDS011;34578;0.000;0.000;2023-04-15T21:23:14;2.13;;;1.07;;
48777;SDS011;34578;0.000;0.000;2023-04-15T21:28:14;3.67;;;1.30;;
48777;SDS011;34578;0.000;0.000;2023-04-15T21:33:15;2.43;;;1.47;;
48777;SDS011;34578;0.000;0.000;2023-04-15T21:38:16;5.55;;;1.40;;
48777;SDS011;34578;0.000;0.000;2023-04-15T21:43:17;3.57;;;1.30;;
48777;SDS011;34578;0.000;0.000;2023-04-15T21:48:18;3.95;;;1.25;;
48777;SDS011;34578;0.000;0.000;2023-04-15T21:53:19;2.00;;;1.05;;
48777;SDS011;34578;0.000;0.000;2023-04-15T21:58:20;2.27;;;1.10;;
48777;SDS011;34578;0.000;0.000;2023-04-15T22:03:20;1.90;;;1.00;;
48777;SDS011;34578;0.000;0.000;2023-04-15T22:08:20;1.47;;;1.07;;
48777;SDS011;34578;0.000;0.000;2023-04-15T22:13:21;1.30;;;1.00;;
48777;SDS011;34578;0.000;0.000;2023-04-15T22:18:21;1.93;;;1.10;;
48777;SDS011;34578;0.000;0.000;2023-04-15T22:23:21;1.53;;;0.90;;
48777;SDS011;34578;0.000;0.000;2023-04-15T22:28:22;2.53;;;0.90;;
48777;SDS011;34578;0.000;0.000;2023-04-15T22:33:22;3.30;;;1.60;;
48777;SDS011;34578;0.000;0.000;2023-04-15T22:38:23;1.43;;;1.13;;
48777;SDS011;34578;0.000;0.000;2023-04-15T22:43:23;1.38;;;1.05;;
48777;SDS011;34578;0.000;0.000;2023-04-15T22:48:24;1.90;;;1.00;;
48777;SDS011;34578;0.000;0.000;2023-04-15T22:53:25;3.63;;;1.10;;
48777;SDS011;34578;0.000;0.000;2023-04-15T22:58:25;2.10;;;1.10;;
48777;SDS011;34578;0.000;0.000;2023-04-15T23:03:25;2.83;;;1.40;;
48777;SDS011;34578;0.000;0.000;2023-04-15T23:08:26;1.67;;;0.93;;
48777;SDS011;34578;0.000;0.000;2023-04-15T23:13:26;1.43;;;0.80;;
48777;SDS011;34578;0.000;0.000;2023-04-15T23:18:26;2.07;;;1.13;;
48777;SDS011;34578;0.000;0.000;2023-04-15T23:23:27;2.83;;;0.88;;
48777;SDS011;34578;0.000;0.000;2023-04-15T23:28:28;2.03;;;1.13;;
48777;SDS011;34578;0.000;0.000;2023-04-15T23:33:28;2.22;;;1.08;;
48777;SDS011;34578;0.000;0.000;2023-04-15T23:38:29;3.33;;;1.00;;
48777;SDS011;34578;0.000;0.000;2023-04-15T23:43:29;1.73;;;0.80;;
48777;SDS011;34578;0.000;0.000;2023-04-15T23:48:30;2.08;;;0.82;;
48777;SDS011;34578;0.000;0.000;2023-04-15T23:53:30;2.47;;;0.80;;
48777;SDS011;34578;0.000;0.000;2023-04-15T23:58:30;3.30;;;1.03;;
